Time;durP1;ratioP1;P1;durP2;ratioP2;P2;SDS_P1;SDS_P2;PMS_P1;PMS_P2;Temp;Humidity;BMP_temperature;BMP_pressure;BME280_temperature;BME280_humidity;BME280_pressure;Samples;Min_cycle;Max_cycle;Signal;HPM_P1;HPM_P2
2023/06/10 04:30:25;;;;;;;;;6.50;5.50;;;;;24.66;50.02;100605.19;4989013;28;45507;-76
2023/06/10 04:32:51;;;;;;;;;7.50;6.50;;;;;24.67;49.62;100605.00;4951237;28;45276;-76
2023/06/10 04:35:17;;;;;;;;;9.50;7.75;;;;;24.68;50.01;100605.88;4984534;28;45833;-74
2023/06/10 04:37:42;;;;;;;;;9.50;7.25;;;;;24.70;49.78;100612.06;4997084;28;46377;-76
2023/06/10 04:40:08;;;;;;;;;7.50;6.25;;;;;24.69;50.06;100622.16;4996837;28;45584;-77
2023/06/10 04:42:34;;;;;;;;;7.00;7.00;;;;;24.69;49.81;100624.91;4996884;28;45340;-78
2023/06/10 04:44:59;;;;;;;;;6.50;5.50;;;;;24.70;49.87;100621.13;4996759;28;45612;-76
2023/06/10 04:47:26;;;;;;;;;6.75;6.75;;;;;24.67;50.23;100618.72;4996647;28;51376;-75
2023/06/10 04:49:52;;;;;;;;;10.00;5.75;;;;;24.69;50.24;100624.03;4996879;28;45401;-74
2023/06/10 04:52:18;;;;;;;;;6.25;6.25;;;;;24.71;49.80;100622.84;4996841;28;45345;-75
2023/06/10 04:54:43;;;;;;;;;6.25;5.25;;;;;24.73;49.65;100622.69;4996517;28;45386;-75
2023/06/10 04:57:10;;;;;;;;;7.25;6.25;;;;;24.76;50.30;100625.97;4996572;28;45933;-74
2023/06/10 04:59:37;;;;;;;;;8.50;5.50;;;;;24.79;50.29;100631.13;4983280;28;45206;-75
2023/06/10 05:02:04;;;;;;;;;6.50;6.50;;;;;24.77;50.16;100633.16;4996515;28;45493;-76
2023/06/10 05:04:30;;;;;;;;;8.75;7.50;;;;;24.78;50.19;100623.06;4996424;28;45341;-74
2023/06/10 05:06:56;;;;;;;;;7.75;6.25;;;;;24.85;49.61;100635.94;4996381;28;46053;-75
2023/06/10 05:09:21;;;;;;;;;6.50;4.00;;;;;24.86;49.89;100639.53;4978852;28;45476;-75
2023/06/10 05:11:46;;;;;;;;;6.00;6.00;;;;;24.86;49.76;100634.06;4990139;28;45428;-77
2023/06/10 05:14:12;;;;;;;;;6.75;6.75;;;;;24.85;49.53;100618.63;4996634;28;45432;-76
2023/06/10 05:16:38;;;;;;;;;5.25;5.00;;;;;24.89;49.56;100631.84;4996495;28;46034;-76
2023/06/10 05:19:04;;;;;;;;;8.75;6.25;;;;;24.88;49.96;100630.13;4996245;28;45314;-75
2023/06/10 05:21:29;;;;;;;;;4.50;4.50;;;;;24.88;50.14;100637.50;4996726;28;45321;-75
2023/06/10 05:23:54;;;;;;;;;5.75;4.50;;;;;24.87;50.06;100638.53;4996517;28;45353;-75
2023/06/10 05:26:20;;;;;;;;;7.00;5.50;;;;;24.85;50.15;100635.06;4978239;28;47243;-75
2023/06/10 05:28:45;;;;;;;;;6.75;6.75;;;;;24.83;49.78;100642.63;4996014;28;45249;-75
2023/06/10 05:31:10;;;;;;;;;6.75;5.25;;;;;24.77;50.22;100638.66;4995501;28;46433;-75
2023/06/10 05:33:36;;;;;;;;;7.00;6.50;;;;;24.82;50.09;100650.00;4990496;28;45585;-76
2023/06/10 05:36:01;;;;;;;;;7.00;6.50;;;;;24.80;50.12;100637.47;4996328;28;45492;-77
2023/06/10 05:38:27;;;;;;;;;9.75;6.00;;;;;24.88;50.35;100652.06;4995970;28;45277;-74
2023/06/10 05:40:52;;;;;;;;;9.00;6.25;;;;;24.83;49.96;100637.16;4995999;28;45223;-76
2023/06/10 05:43:18;;;;;;;;;7.25;6.00;;;;;24.84;50.32;100636.09;4996139;28;45373;-76
2023/06/10 05:45:44;;;;;;;;;6.00;6.00;;;;;24.87;49.83;100633.03;4995809;28;46840;-75
2023/06/10 05:48:09;;;;;;;;;6.00;5.50;;;;;24.88;50.08;100629.28;4995728;28;45385;-76
2023/06/10 05:50:38;;;;;;;;;8.50;7.00;;;;;25.00;50.36;100649.06;4970163;28;45420;-77
2023/06/10 05:53:06;;;;;;;;;7.00;7.00;;;;;24.99;50.37;100653.69;4995455;28;45336;-75
2023/06/10 05:55:32;;;;;;;;;4.50;4.50;;;;;24.91;50.05;100650.94;4995408;28;46379;-76
2023/06/10 05:58:00;;;;;;;;;8.50;7.75;;;;;24.95;50.21;100657.78;4994953;28;45384;-75
2023/06/10 06:00:26;;;;;;;;;10.25;6.75;;;;;24.75;50.01;100621.50;4983992;28;45356;-75
2023/06/10 06:02:52;;;;;;;;;6.00;6.00;;;;;24.87;50.49;100649.50;4995145;28;45529;-78
2023/06/10 06:05:17;;;;;;;;;7.00;5.50;;;;;24.98;49.98;100659.34;4995837;28;46530;-72
2023/06/10 06:07:43;;;;;;;;;7.25;7.25;;;;;25.02;50.10;100656.09;4995997;28;45328;-74
2023/06/10 06:10:08;;;;;;;;;7.00;7.00;;;;;25.02;50.15;100653.34;4995759;28;45280;-75
2023/06/10 06:12:34;;;;;;;;;10.00;7.75;;;;;25.07;49.85;100651.00;4989193;28;45314;-80
2023/06/10 06:14:59;;;;;;;;;7.25;7.25;;;;;25.13;49.69;100658.53;4995636;28;45310;-74
2023/06/10 06:17:25;;;;;;;;;7.75;7.75;;;;;25.13;49.66;100652.19;4977058;28;45375;-73
2023/06/10 06:19:50;;;;;;;;;8.00;6.25;;;;;25.16;50.07;100658.22;4996124;28;45184;-71
2023/06/10 06:22:19;;;;;;;;;6.75;5.25;;;;;25.10;50.41;100652.50;4995141;28;51506;-75
2023/06/10 06:24:45;;;;;;;;;7.25;7.25;;;;;25.18;49.83;100661.63;4995345;28;46325;-74
2023/06/10 06:27:10;;;;;;;;;6.50;5.75;;;;;25.13;49.93;100653.06;4994847;28;45237;-76
2023/06/10 06:29:35;;;;;;;;;7.25;5.50;;;;;25.22;50.35;100663.03;4995682;28;45420;-76
2023/06/10 06:32:01;;;;;;;;;8.00;5.75;;;;;25.19;50.45;100654.25;4994656;28;45480;-81
2023/06/10 06:34:26;;;;;;;;;9.50;8.25;;;;;25.26;50.26;100667.16;4971488;28;47489;-74
2023/06/10 06:36:51;;;;;;;;;8.25;7.00;;;;;25.26;50.01;100666.31;4995048;28;45326;-73
2023/06/10 06:39:16;;;;;;;;;5.25;5.00;;;;;25.23;50.04;100663.91;4995348;28;45368;-71
2023/06/10 06:41:42;;;;;;;;;8.75;6.00;;;;;25.30;50.01;100670.44;4979902;28;45481;-74
2023/06/10 06:44:07;;;;;;;;;12.00;7.00;;;;;25.30;50.05;100666.81;4979821;28;46299;-72
2023/06/10 06:46:32;;;;;;;;;7.00;6.75;;;;;25.34;50.24;100680.06;4974816;28;45476;-76
2023/06/10 06:48:58;;;;;;;;;6.25;6.25;;;;;25.37;50.39;100673.34;4976646;28;46011;-73
2023/06/10 06:51:23;;;;;;;;;7.25;6.25;;;;;25.40;49.81;100673.91;4973658;28;45850;-72
2023/06/10 06:53:51;;;;;;;;;7.25;6.00;;;;;25.46;50.09;100681.44;4974539;28;46162;-72
2023/06/10 06:56:16;;;;;;;;;9.75;8.00;;;;;25.51;50.00;100675.47;4972530;28;46954;-74
2023/06/10 06:58:41;;;;;;;;;5.75;5.75;;;;;25.49;49.92;100677.53;4973919;28;45472;-69
2023/06/10 07:01:07;;;;;;;;;8.00;5.75;;;;;25.59;50.07;100678.25;4974874;28;49965;-70
2023/06/10 07:03:32;;;;;;;;;7.00;6.00;;;;;25.65;50.01;100677.59;4975577;28;48116;-71
2023/06/10 07:05:57;;;;;;;;;7.00;6.75;;;;;25.66;50.03;100683.94;4973962;28;45519;-74
2023/06/10 07:08:23;;;;;;;;;7.25;6.00;;;;;25.62;50.00;100675.16;4975664;28;45474;-74
2023/06/10 07:10:49;;;;;;;;;6.75;6.75;;;;;25.67;49.85;100693.88;4975252;28;45508;-71
2023/06/10 07:13:14;;;;;;;;;8.50;7.50;;;;;25.68;49.91;100688.22;4978116;28;45632;-73
2023/06/10 07:15:39;;;;;;;;;7.00;6.75;;;;;25.75;49.95;100691.16;4981148;28;45793;-73
2023/06/10 07:18:05;;;;;;;;;7.50;5.25;;;;;25.75;50.28;100691.16;4963713;28;45964;-73
2023/06/10 07:20:30;;;;;;;;;8.00;6.25;;;;;25.71;50.61;100689.75;4978012;28;45376;-71
2023/06/10 07:22:55;;;;;;;;;5.50;5.25;;;;;25.75;50.43;100689.28;4994401;28;45448;-72
2023/06/10 07:25:21;;;;;;;;;9.25;7.50;;;;;25.79;50.61;100692.53;4989354;28;45690;-72
2023/06/10 07:27:46;;;;;;;;;8.25;6.75;;;;;25.83;50.48;100686.53;4996123;28;45681;-72
2023/06/10 07:30:12;;;;;;;;;5.00;5.00;;;;;25.88;50.17;100692.34;4992516;28;48650;-73
2023/06/10 07:32:37;;;;;;;;;7.75;6.75;;;;;25.83;50.50;100685.66;4972000;28;47384;-71
2023/06/10 07:35:03;;;;;;;;;5.25;5.00;;;;;25.82;50.38;100687.56;4991370;28;45510;-70
2023/06/10 07:37:28;;;;;;;;;8.00;6.00;;;;;25.82;50.34;100687.56;4991163;28;45533;-73
2023/06/10 07:39:54;;;;;;;;;7.75;6.25;;;;;25.89;50.67;100699.56;4982679;28;45550;-73
2023/06/10 07:42:19;;;;;;;;;7.50;7.50;;;;;25.95;50.24;100703.53;4996958;28;45365;-75
2023/06/10 07:44:45;;;;;;;;;8.25;6.75;;;;;26.02;50.23;100703.72;4963904;28;45543;-74
2023/06/10 07:47:10;;;;;;;;;7.25;6.25;;;;;26.06;50.46;100696.84;4997628;28;45456;-75
2023/06/10 07:49:35;;;;;;;;;8.75;7.00;;;;;26.10;49.96;100699.09;4997340;28;45548;-76
2023/06/10 07:52:01;;;;;;;;;10.00;7.00;;;;;26.19;50.03;100697.19;4997179;28;45288;-74
2023/06/10 07:54:26;;;;;;;;;6.75;6.75;;;;;26.11;50.23;100688.97;4997995;28;49884;-76
2023/06/10 07:56:53;;;;;;;;;7.75;7.25;;;;;26.10;50.67;100681.75;4996672;28;45369;-75
2023/06/10 07:59:18;;;;;;;;;5.25;5.25;;;;;26.32;50.26;100712.16;4985951;28;45492;-71
2023/06/10 08:01:44;;;;;;;;;7.00;7.00;;;;;26.41;50.04;100712.16;4965779;28;48407;-74
2023/06/10 08:04:09;;;;;;;;;7.25;7.25;;;;;26.40;50.36;100699.44;4989701;28;45603;-77
2023/06/10 08:06:36;;;;;;;;;6.50;6.50;;;;;26.54;50.02;100718.00;4979945;28;45440;-77
2023/06/10 08:09:02;;;;;;;;;4.00;4.00;;;;;26.60;49.78;100717.28;4997388;28;45321;-75
2023/06/10 08:11:28;;;;;;;;;6.50;5.25;;;;;26.63;49.21;100727.91;4991366;28;45781;-75
2023/06/10 08:13:54;;;;;;;;;9.50;6.50;;;;;26.64;48.64;100711.25;4996612;28;45424;-77
2023/06/10 08:16:19;;;;;;;;;7.50;4.75;;;;;26.71;49.30;100722.44;4995063;28;45309;-75
2023/06/10 08:18:45;;;;;;;;;6.50;6.50;;;;;26.68;49.57;100718.13;4992543;28;45519;-76
2023/06/10 08:21:10;;;;;;;;;10.00;8.25;;;;;26.70;49.61;100705.06;4982244;28;45443;-75
2023/06/10 08:23:35;;;;;;;;;8.25;6.50;;;;;26.80;49.15;100706.72;4997314;28;45160;-75
2023/06/10 08:26:01;;;;;;;;;9.75;7.00;;;;;26.83;48.76;100717.41;4997095;28;45474;-71
2023/06/10 08:28:26;;;;;;;;;9.50;7.00;;;;;26.81;48.20;100719.47;4997032;28;45529;-74
2023/06/10 08:30:53;;;;;;;;;7.50;6.25;;;;;26.81;49.03;100708.44;4996824;28;46676;-76
2023/06/10 08:33:18;;;;;;;;;5.75;5.25;;;;;26.84;48.21;100717.22;4993184;28;45306;-76
2023/06/10 08:35:43;;;;;;;;;8.00;8.00;;;;;26.84;48.25;100713.63;4995515;28;45444;-76
2023/06/10 08:38:09;;;;;;;;;8.50;7.50;;;;;26.91;48.68;100715.50;4979309;28;45477;-74
2023/06/10 08:40:34;;;;;;;;;8.00;6.75;;;;;26.86;48.93;100719.81;4995948;28;47204;-73
2023/06/10 08:43:02;;;;;;;;;7.25;7.00;;;;;26.91;48.78;100722.91;4997388;28;45426;-73
2023/06/10 08:45:31;;;;;;;;;8.00;7.00;;;;;26.90;48.56;100729.41;4996958;28;45400;-72
2023/06/10 08:47:57;;;;;;;;;8.25;7.50;;;;;26.91;48.44;100728.41;4996803;28;46142;-73
2023/06/10 08:50:23;;;;;;;;;6.00;6.00;;;;;26.91;48.71;100723.75;4996702;28;46294;-74
2023/06/10 08:52:53;;;;;;;;;6.25;6.25;;;;;26.96;48.87;100724.13;4996551;28;45368;-75
2023/06/10 08:55:29;;;;;;;;;5.75;5.25;;;;;27.00;48.28;100722.72;4996545;28;45372;-74
2023/06/10 08:57:55;;;;;;;;;6.75;6.75;;;;;27.00;48.37;100730.09;4996120;28;45475;-71
2023/06/10 09:00:22;;;;;;;;;5.75;5.75;;;;;27.04;48.75;100725.97;4979873;28;45609;-75
2023/06/10 09:02:47;;;;;;;;;4.00;4.00;;;;;27.13;48.44;100735.94;4972773;28;45367;-72
2023/06/10 09:05:13;;;;;;;;;5.00;5.00;;;;;27.15;47.78;100722.81;4994636;28;45425;-74
2023/06/10 09:07:39;;;;;;;;;4.50;4.50;;;;;27.23;48.37;100725.53;4987820;28;45492;-75
2023/06/10 09:10:06;;;;;;;;;8.00;6.75;;;;;27.29;48.07;100727.59;4983685;28;46119;-73
2023/06/10 09:12:33;;;;;;;;;6.75;6.50;;;;;27.30;47.58;100721.06;4990222;28;45409;-79
2023/06/10 09:14:59;;;;;;;;;5.50;5.25;;;;;27.32;47.65;100731.88;4996468;28;45487;-73
2023/06/10 09:17:24;;;;;;;;;5.00;5.00;;;;;27.33;47.34;100720.69;4996205;28;45526;-75
2023/06/10 09:19:53;;;;;;;;;3.25;3.25;;;;;27.41;47.43;100720.63;4996296;28;46048;-75
2023/06/10 09:22:18;;;;;;;;;4.75;4.00;;;;;27.47;47.45;100733.72;4996360;28;45502;-70
2023/06/10 09:24:43;;;;;;;;;3.75;3.75;;;;;27.49;47.76;100728.84;4996289;28;45468;-73
2023/06/10 09:27:09;;;;;;;;;8.25;4.50;;;;;27.56;46.87;100719.94;4995637;28;51007;-74
2023/06/10 09:29:48;;;;;;;;;7.25;5.50;;;;;27.59;47.05;100725.06;4996289;28;45377;-75
2023/06/10 09:32:13;;;;;;;;;6.75;5.25;;;;;27.63;46.86;100729.19;4995988;28;45333;-80
2023/06/10 09:34:39;;;;;;;;;3.75;3.75;;;;;27.44;46.81;100692.75;4990690;28;45289;-77
2023/06/10 09:37:05;;;;;;;;;5.75;5.75;;;;;27.68;47.10;100722.06;4996384;28;45487;-73
2023/06/10 09:39:30;;;;;;;;;4.75;4.75;;;;;27.77;46.65;100729.25;4996243;28;45410;-75
2023/06/10 09:41:56;;;;;;;;;4.75;3.75;;;;;27.80;45.89;100723.38;4995245;28;49207;-76
2023/06/10 09:44:21;;;;;;;;;6.25;5.25;;;;;27.85;46.51;100729.19;4996903;28;45273;-74
2023/06/10 09:46:50;;;;;;;;;4.50;3.00;;;;;27.87;45.78;100726.25;4995943;28;45582;-74
2023/06/10 09:49:18;;;;;;;;;3.75;3.75;;;;;27.88;46.01;100725.22;4996010;28;45428;-74
2023/06/10 09:51:54;;;;;;;;;4.75;3.50;;;;;27.90;45.58;100720.41;4994723;28;45388;-75
2023/06/10 09:54:20;;;;;;;;;4.25;4.00;;;;;27.93;45.20;100727.41;4996102;28;45419;-74
2023/06/10 09:56:53;;;;;;;;;4.50;4.00;;;;;28.03;44.58;100728.03;4961483;28;47526;-75
2023/06/10 09:59:29;;;;;;;;;2.00;2.00;;;;;28.00;44.59;100729.25;4962551;28;47538;-73
2023/06/10 10:01:56;;;;;;;;;5.00;5.00;;;;;28.06;45.34;100731.28;4993403;28;45348;-73
2023/06/10 10:04:25;;;;;;;;;4.75;3.00;;;;;28.08;44.32;100731.94;4993470;28;45492;-73
2023/06/10 10:06:50;;;;;;;;;5.25;4.75;;;;;28.12;44.45;100736.06;4977058;28;47382;-74
2023/06/10 10:09:16;;;;;;;;;5.25;5.00;;;;;28.12;44.00;100737.97;4993869;28;45435;-72
2023/06/10 10:11:43;;;;;;;;;5.00;5.00;;;;;28.17;44.46;100739.16;4978084;28;45480;-74
2023/06/10 10:14:09;;;;;;;;;5.75;5.50;;;;;28.07;44.22;100734.91;4978195;28;45382;-73
2023/06/10 10:16:40;;;;;;;;;9.75;5.00;;;;;28.09;44.63;100735.56;4984490;28;45504;-74
2023/06/10 10:19:30;;;;;;;;;8.25;4.75;;;;;28.14;44.05;100725.72;4995069;28;45488;-73
2023/06/10 10:22:10;;;;;;;;;5.00;3.75;;;;;28.17;44.71;100736.38;4995654;28;45187;-74
2023/06/10 10:24:40;;;;;;;;;3.25;3.25;;;;;28.21;44.40;100729.47;4995803;28;45334;-74
2023/06/10 10:27:14;;;;;;;;;5.00;5.00;;;;;28.14;44.17;100725.72;4958191;28;45460;-74
2023/06/10 10:29:40;;;;;;;;;6.00;4.50;;;;;28.22;44.81;100727.56;4996073;28;46293;-72
2023/06/10 10:32:07;;;;;;;;;5.25;4.00;;;;;28.30;44.53;100724.75;4994895;28;45523;-73
2023/06/10 10:34:43;;;;;;;;;6.00;6.00;;;;;28.37;44.65;100720.19;4989746;28;45492;-71
2023/06/10 10:37:08;;;;;;;;;7.75;6.75;;;;;28.41;43.65;100721.53;4996110;28;45460;-71
2023/06/10 10:39:36;;;;;;;;;4.00;4.00;;;;;28.47;43.84;100717.19;4995687;28;45298;-75
2023/06/10 10:42:03;;;;;;;;;4.00;4.00;;;;;28.50;43.79;100723.16;4995782;28;45415;-79
2023/06/10 10:44:30;;;;;;;;;8.75;6.00;;;;;28.52;44.20;100721.09;4978861;28;45432;-75
2023/06/10 10:46:56;;;;;;;;;5.50;5.50;;;;;28.59;43.66;100727.56;4986919;28;45442;-74
2023/06/10 10:49:24;;;;;;;;;5.50;5.50;;;;;28.66;43.12;100715.81;4967531;28;47459;-74
2023/06/10 10:52:00;;;;;;;;;5.00;4.00;;;;;28.74;43.11;100718.47;4995095;28;45313;-72
2023/06/10 10:54:35;;;;;;;;;7.00;6.00;;;;;28.75;43.13;100709.97;4977026;28;45472;-73
2023/06/10 10:57:17;;;;;;;;;6.25;5.00;;;;;28.80;42.46;100703.94;4977280;28;45472;-73
2023/06/10 10:59:49;;;;;;;;;6.00;5.75;;;;;28.85;42.92;100710.59;4975156;28;45424;-70
2023/06/10 11:02:18;;;;;;;;;8.50;6.00;;;;;28.93;41.88;100706.88;4995393;28;45349;-74
2023/06/10 11:04:47;;;;;;;;;8.00;7.25;;;;;28.98;41.96;100705.28;4980767;28;45376;-72
2023/06/10 11:07:15;;;;;;;;;5.50;5.50;;;;;29.05;42.00;100699.84;4975475;28;45502;-77
2023/06/10 11:10:10;;;;;;;;;4.00;4.00;;;;;29.18;41.44;100701.91;4991800;28;46237;-78
2023/06/10 11:12:44;;;;;;;;;7.00;7.00;;;;;29.21;40.62;100696.03;4984422;28;45364;-75
2023/06/10 11:15:10;;;;;;;;;8.00;6.75;;;;;29.31;41.01;100699.34;4995335;28;45433;-74
2023/06/10 11:17:35;;;;;;;;;6.25;6.25;;;;;29.33;40.91;100700.88;4993124;28;45847;-74
2023/06/10 11:20:00;;;;;;;;;7.00;7.00;;;;;29.42;40.79;100707.19;4994836;28;45462;-74
2023/06/10 11:22:26;;;;;;;;;6.25;5.25;;;;;29.43;40.87;100697.84;4994863;28;45397;-76
2023/06/10 11:24:51;;;;;;;;;7.00;7.00;;;;;29.45;40.42;100692.09;4995178;28;45584;-79
2023/06/10 11:27:21;;;;;;;;;8.00;7.00;;;;;29.55;40.00;100700.94;4982058;28;45502;-76
2023/06/10 11:30:20;;;;;;;;;5.00;4.50;;;;;29.60;39.88;100698.47;4986218;28;46058;-81
2023/06/10 11:32:51;;;;;;;;;8.25;6.00;;;;;29.62;39.62;100696.34;4942205;28;45446;-79
2023/06/10 11:35:19;;;;;;;;;7.75;7.75;;;;;29.66;39.14;100703.19;4957879;28;45792;-77
2023/06/10 11:37:45;;;;;;;;;7.00;6.25;;;;;29.60;39.46;100693.75;4975192;28;45387;-79
2023/06/10 11:40:11;;;;;;;;;10.50;6.75;;;;;29.68;40.06;100710.25;4959638;28;47300;-74
2023/06/10 11:42:43;;;;;;;;;6.00;5.25;;;;;29.65;40.16;100698.72;4976034;28;45302;-77
2023/06/10 11:45:09;;;;;;;;;7.50;6.50;;;;;29.64;39.54;100685.94;4956402;28;45483;-79
2023/06/10 11:47:34;;;;;;;;;10.00;9.50;;;;;29.77;39.50;100704.59;4974699;28;45589;-79
2023/06/10 11:50:00;;;;;;;;;6.00;5.75;;;;;29.88;39.62;100709.59;4976521;28;45937;-74
2023/06/10 11:52:33;;;;;;;;;9.00;5.75;;;;;30.00;39.15;100711.69;4965389;28;45409;-75
2023/06/10 11:54:59;;;;;;;;;8.75;6.25;;;;;30.02;38.99;100701.28;4976813;28;45364;-75
2023/06/10 11:57:24;;;;;;;;;5.00;5.00;;;;;30.15;39.07;100702.47;4994440;28;45332;-76
2023/06/10 11:59:49;;;;;;;;;6.75;5.50;;;;;30.20;39.43;100713.78;4981826;28;46247;-79
2023/06/10 12:02:19;;;;;;;;;7.25;7.25;;;;;30.21;38.81;100709.94;4996198;28;45413;-80
2023/06/10 12:04:44;;;;;;;;;6.25;6.25;;;;;30.22;37.98;100714.44;4995545;28;45266;-79
2023/06/10 12:07:17;;;;;;;;;6.00;5.00;;;;;30.15;38.72;100714.38;4994544;28;45528;-77
2023/06/10 12:09:43;;;;;;;;;7.25;6.00;;;;;30.04;38.57;100692.78;4991470;28;46056;-77
2023/06/10 12:12:10;;;;;;;;;6.25;6.25;;;;;30.11;38.54;100702.00;4974495;28;46653;-76
2023/06/10 12:15:05;;;;;;;;;6.00;6.00;;;;;30.20;38.64;100719.31;4979231;28;45368;-77
2023/06/10 12:17:31;;;;;;;;;9.75;7.00;;;;;30.24;38.84;100704.03;4972684;28;45681;-75
2023/06/10 12:19:57;;;;;;;;;6.00;6.00;;;;;30.28;38.82;100699.81;4976025;28;45695;-77
2023/06/10 12:22:24;;;;;;;;;7.25;5.25;;;;;30.25;39.00;100711.28;4978657;28;45509;-76
2023/06/10 12:24:59;;;;;;;;;8.50;8.50;;;;;30.11;39.03;100710.31;4959324;28;45415;-74
2023/06/10 12:27:25;;;;;;;;;6.25;6.25;;;;;29.99;39.67;100698.91;4979208;28;45406;-79
2023/06/10 12:29:55;;;;;;;;;7.00;6.75;;;;;30.23;39.47;100702.31;4958857;28;46992;-77
2023/06/10 12:32:22;;;;;;;;;6.25;6.25;;;;;30.33;39.30;100711.13;4978675;28;45489;-80
2023/06/10 12:34:48;;;;;;;;;6.50;5.25;;;;;30.37;38.97;100702.22;4971920;28;45406;-73
2023/06/10 12:37:13;;;;;;;;;6.00;6.00;;;;;30.34;38.90;100699.03;4996535;28;45354;-76
2023/06/10 12:39:40;;;;;;;;;7.00;6.00;;;;;30.36;39.48;100699.69;4997017;28;45612;-78
2023/06/10 12:42:09;;;;;;;;;6.75;6.75;;;;;30.31;39.16;100710.47;4996791;28;45471;-74
2023/06/10 12:44:40;;;;;;;;;7.75;7.25;;;;;30.24;39.63;100704.03;4997254;28;45265;-76
2023/06/10 12:47:12;;;;;;;;;7.00;7.00;;;;;30.22;40.75;100697.84;4996827;28;45413;-78
2023/06/10 12:49:38;;;;;;;;;4.00;3.00;;;;;30.22;40.36;100700.59;4996625;28;47039;-76
2023/06/10 12:52:04;;;;;;;;;7.25;7.00;;;;;30.30;40.18;100692.16;4996379;28;45398;-78
2023/06/10 12:54:30;;;;;;;;;5.75;5.75;;;;;30.32;39.60;100699.22;4996706;28;45319;-73
2023/06/10 12:56:55;;;;;;;;;7.50;6.50;;;;;30.31;39.93;100697.50;4995586;28;45762;-75
2023/06/10 12:59:20;;;;;;;;;7.50;6.25;;;;;30.29;39.80;100684.91;4966847;28;48304;-75
2023/06/10 13:01:53;;;;;;;;;7.50;7.25;;;;;30.25;39.06;100687.25;4995501;28;45312;-81
2023/06/10 13:04:19;;;;;;;;;6.50;6.50;;;;;30.19;39.37;100687.19;4963073;28;45307;-75
2023/06/10 13:06:46;;;;;;;;;5.75;5.00;;;;;30.12;39.68;100676.03;4991705;28;45768;-79
2023/06/10 13:09:12;;;;;;;;;10.75;7.75;;;;;30.20;39.82;100689.72;4983902;28;45530;-78
2023/06/10 13:11:37;;;;;;;;;7.00;6.00;;;;;30.12;40.43;100653.06;4970143;28;45504;-82
2023/06/10 13:14:04;;;;;;;;;10.75;7.00;;;;;30.29;39.80;100676.63;4975419;28;45486;-79
2023/06/10 13:16:31;;;;;;;;;7.50;6.00;;;;;30.19;40.37;100668.69;4994013;28;45572;-80
2023/06/10 13:18:56;;;;;;;;;8.75;6.25;;;;;30.23;40.55;100678.28;4996109;28;46305;-81
2023/06/10 13:21:21;;;;;;;;;6.25;6.00;;;;;30.22;40.48;100682.09;4996156;28;45310;-77
2023/06/10 13:23:50;;;;;;;;;10.25;7.25;;;;;30.18;39.47;100674.41;4996518;28;46094;-78
2023/06/10 13:26:16;;;;;;;;;2.75;2.75;;;;;30.15;39.00;100669.28;4996311;28;45615;-79
2023/06/10 13:28:45;;;;;;;;;5.50;5.50;;;;;30.17;38.67;100669.94;4996092;28;46304;-75
2023/06/10 13:31:10;;;;;;;;;6.00;6.00;;;;;30.25;39.73;100667.03;4996463;28;45243;-85
2023/06/10 13:33:36;;;;;;;;;5.00;5.00;;;;;30.36;39.28;100667.34;4990647;28;45433;-76
2023/06/10 13:36:01;;;;;;;;;9.25;7.25;;;;;30.53;38.48;100653.22;4996515;28;45377;-77
2023/06/10 13:38:27;;;;;;;;;6.75;6.75;;;;;30.75;37.92;100665.94;4996206;28;45944;-78
2023/06/10 13:40:52;;;;;;;;;6.25;6.00;;;;;30.85;36.24;100660.88;4978333;28;45351;-80
2023/06/10 13:43:17;;;;;;;;;8.50;7.75;;;;;31.16;35.38;100669.59;4978982;28;45323;-76
2023/06/10 13:45:43;;;;;;;;;7.00;7.00;;;;;31.34;35.55;100674.56;4996245;28;50092;-78
2023/06/10 13:48:08;;;;;;;;;7.50;5.75;;;;;31.41;35.41;100653.28;4978780;28;47759;-78
2023/06/10 13:50:34;;;;;;;;;6.00;6.00;;;;;31.69;35.36;100667.03;4996361;28;46450;-79
2023/06/10 13:52:59;;;;;;;;;6.25;4.75;;;;;31.76;35.73;100667.91;4995998;28;45973;-77
2023/06/10 13:55:25;;;;;;;;;7.25;7.25;;;;;31.65;35.67;100640.78;4979096;28;46284;-77
2023/06/10 13:57:50;;;;;;;;;11.75;7.75;;;;;31.84;35.69;100662.16;4978594;28;46131;-77
2023/06/10 14:00:16;;;;;;;;;7.25;6.25;;;;;31.89;35.58;100664.31;4983642;28;45460;-77
2023/06/10 14:02:42;;;;;;;;;4.25;4.00;;;;;32.01;34.74;100653.44;4996588;28;45237;-77
2023/06/10 14:05:08;;;;;;;;;6.25;6.25;;;;;32.13;34.56;100651.75;4996357;28;45679;-76
2023/06/10 14:07:33;;;;;;;;;5.75;5.75;;;;;32.24;34.60;100635.31;4978283;28;47690;-77
2023/06/10 14:09:59;;;;;;;;;9.00;6.50;;;;;32.42;34.91;100650.47;4995228;28;45249;-78
2023/06/10 14:12:24;;;;;;;;;5.00;5.00;;;;;32.42;33.91;100654.09;4988437;28;45385;-80
2023/06/10 14:14:50;;;;;;;;;6.50;5.25;;;;;32.54;34.32;100640.44;4995586;28;45564;-74
2023/06/10 14:17:15;;;;;;;;;7.25;7.25;;;;;32.60;34.38;100626.53;4977806;28;45909;-77
2023/06/10 14:19:40;;;;;;;;;4.50;4.50;;;;;32.47;33.50;100622.94;4995572;28;45309;-76
2023/06/10 14:22:07;;;;;;;;;10.25;8.50;;;;;32.56;34.54;100652.19;4995882;28;45411;-79
2023/06/10 14:24:32;;;;;;;;;7.00;7.00;;;;;32.71;34.20;100632.53;4995568;28;45547;-78
2023/06/10 14:26:58;;;;;;;;;6.75;6.75;;;;;32.82;33.58;100629.94;4995027;28;46054;-77
2023/06/10 14:29:24;;;;;;;;;8.75;8.00;;;;;32.98;33.09;100637.78;4995722;28;45318;-77
2023/06/10 14:31:49;;;;;;;;;6.25;6.25;;;;;32.97;33.82;100632.44;4995648;28;45476;-79
2023/06/10 14:34:14;;;;;;;;;7.50;7.50;;;;;33.09;33.80;100627.94;4989378;28;45250;-74
2023/06/10 14:36:40;;;;;;;;;6.75;6.00;;;;;33.14;34.43;100622.56;4994704;28;45471;-78
2023/06/10 14:39:05;;;;;;;;;7.75;6.00;;;;;33.19;33.53;100625.50;4995484;28;45368;-84
2023/06/10 14:41:31;;;;;;;;;7.50;6.75;;;;;33.18;33.58;100609.91;4995696;28;45530;-84
2023/06/10 14:43:56;;;;;;;;;8.00;6.25;;;;;33.15;33.35;100602.03;4996157;28;45483;-81
2023/06/10 14:46:22;;;;;;;;;7.50;6.25;;;;;33.13;33.53;100608.88;4995536;28;45435;-81
2023/06/10 14:48:47;;;;;;;;;0.50;0.00;;;;;33.02;33.68;100624.28;4995220;28;45239;-80
2023/06/10 14:51:12;;;;;;;;;5.25;5.25;;;;;32.98;33.43;100617.50;4995339;28;45241;-80
2023/06/10 14:53:41;;;;;;;;;7.75;6.50;;;;;33.06;34.35;100631.13;4995301;28;45529;-85
2023/06/10 14:56:06;;;;;;;;;7.50;6.50;;;;;33.00;33.68;100601.47;4995526;28;46686;-82
2023/06/10 14:58:32;;;;;;;;;6.25;6.25;;;;;33.11;34.13;100602.69;4972768;28;45519;-85
2023/06/10 15:00:57;;;;;;;;;6.75;6.75;;;;;33.06;32.59;100581.97;4989971;28;45376;-85
2023/06/10 15:03:22;;;;;;;;;7.00;6.50;;;;;33.33;32.45;100626.34;4993597;28;46211;-79
2023/06/10 15:05:48;;;;;;;;;10.25;8.75;;;;;33.34;32.55;100622.50;4994919;28;46402;-76
2023/06/10 15:08:13;;;;;;;;;7.00;6.00;;;;;33.26;32.37;100612.47;4994232;28;45456;-81
2023/06/10 15:10:38;;;;;;;;;7.00;5.75;;;;;33.18;32.75;100620.16;4973528;28;45291;-79
2023/06/10 15:13:04;;;;;;;;;6.75;5.75;;;;;33.09;32.91;100621.50;4993229;28;45371;-80
2023/06/10 15:15:29;;;;;;;;;7.00;7.00;;;;;33.03;33.04;100637.13;4995177;28;45337;-85
2023/06/10 15:17:55;;;;;;;;;10.00;8.00;;;;;32.94;33.34;100630.09;4994473;28;45486;-77
2023/06/10 15:20:20;;;;;;;;;6.00;5.00;;;;;32.91;33.41;100630.56;4995427;28;45372;-77
2023/06/10 15:22:46;;;;;;;;;6.00;6.00;;;;;32.76;33.02;100607.72;4994574;28;45405;-78
2023/06/10 15:25:11;;;;;;;;;8.00;6.75;;;;;32.81;33.82;100617.13;4994428;28;46171;-76
2023/06/10 15:27:36;;;;;;;;;7.00;6.25;;;;;32.93;33.50;100632.03;4977164;28;45517;-74
2023/06/10 15:30:03;;;;;;;;;8.25;8.00;;;;;32.95;33.16;100635.44;4994872;28;45267;-76
2023/06/10 15:32:28;;;;;;;;;8.25;7.00;;;;;32.92;32.83;100630.31;4994253;28;45234;-82
2023/06/10 15:34:54;;;;;;;;;9.75;7.25;;;;;32.96;32.87;100614.06;4988478;28;46312;-80
2023/06/10 15:37:20;;;;;;;;;9.00;8.00;;;;;32.93;33.01;100614.50;4994224;28;45401;-75
2023/06/10 15:39:46;;;;;;;;;7.25;7.25;;;;;32.99;33.29;100622.84;4994667;28;45252;-76
2023/06/10 15:42:12;;;;;;;;;7.00;6.25;;;;;33.13;32.40;100612.50;4993856;28;46158;-78
2023/06/10 15:44:37;;;;;;;;;7.75;7.50;;;;;33.14;32.38;100616.13;4994551;28;46145;-75
2023/06/10 15:47:03;;;;;;;;;7.25;6.50;;;;;33.12;32.03;100612.72;4994619;28;46284;-75
2023/06/10 15:49:28;;;;;;;;;6.25;6.25;;;;;33.12;32.78;100605.25;4996230;28;45432;-75
2023/06/10 15:51:53;;;;;;;;;7.25;5.75;;;;;33.15;32.42;100613.16;4997970;28;46513;-75